createdAt,value
2022-09-14T00:02:10.646Z,97338.00
2022-09-14T00:04:46.986Z,97333.00
2022-09-14T00:07:26.145Z,97347.00
2022-09-14T00:10:01.410Z,97325.00
2022-09-14T00:12:37.074Z,97333.00
2022-09-14T00:15:18.693Z,97347.00
2022-09-14T00:17:53.837Z,97331.00
2022-09-14T00:20:37.509Z,97332.00
2022-09-14T00:23:13.729Z,97309.00
2022-09-14T00:25:51.023Z,97309.00
2022-09-14T00:28:26.202Z,97307.00
2022-09-14T00:31:01.824Z,97287.00
2022-09-14T00:33:40.708Z,97297.00
2022-09-14T00:36:30.711Z,97263.00
2022-09-14T00:39:06.499Z,97276.00
2022-09-14T00:41:44.225Z,97272.00
2022-09-14T00:45:15.890Z,97275.00
2022-09-14T00:47:57.107Z,97283.00
2022-09-14T00:50:33.176Z,97289.00
2022-09-14T00:53:10.302Z,97279.00
2022-09-14T00:55:45.406Z,97262.00
2022-09-14T00:58:22.462Z,97263.00
2022-09-14T01:01:03.274Z,97254.00
2022-09-14T01:03:37.844Z,97261.00
2022-09-14T01:06:22.464Z,97247.00
2022-09-14T01:09:29.290Z,97241.00
2022-09-14T01:12:20.759Z,97244.00
2022-09-14T01:15:06.099Z,97230.00
2022-09-14T01:17:54.543Z,97229.00
2022-09-14T01:20:37.111Z,97208.00
2022-09-14T01:23:20.055Z,97214.00
2022-09-14T01:26:36.547Z,97245.00
2022-09-14T01:29:19.154Z,97242.00
2022-09-14T01:32:04.880Z,97269.00
2022-09-14T01:34:54.434Z,97275.00
2022-09-14T01:40:34.244Z,97292.00
2022-09-14T01:43:17.096Z,97312.00
2022-09-14T01:45:59.139Z,97302.00
2022-09-14T01:48:43.100Z,97322.00
2022-09-14T01:51:28.335Z,97281.00
2022-09-14T01:54:11.143Z,97281.00
2022-09-14T01:56:52.270Z,97268.00
2022-09-14T01:59:30.501Z,97317.00
2022-09-14T02:02:23.271Z,97324.00
2022-09-14T02:05:07.150Z,97340.00
2022-09-14T02:07:44.874Z,97371.00
2022-09-14T02:10:19.802Z,97376.00
2022-09-14T02:12:54.957Z,97374.00
2022-09-14T02:15:30.226Z,97337.00
2022-09-14T02:18:12.606Z,97343.00
2022-09-14T02:21:02.223Z,97329.00
2022-09-14T02:23:46.854Z,97343.00
2022-09-14T02:26:23.403Z,97330.00
2022-09-14T02:28:58.935Z,97329.00
2022-09-14T02:31:53.781Z,97346.00
2022-09-14T02:34:48.139Z,97315.00
2022-09-14T02:37:32.767Z,97315.00
2022-09-14T02:40:21.910Z,97321.00
2022-09-14T02:43:14.434Z,97328.00
2022-09-14T02:45:57.902Z,97321.00
2022-09-14T02:48:49.993Z,97327.00
2022-09-14T02:51:32.991Z,97317.00
2022-09-14T02:54:14.678Z,97310.00
2022-09-14T02:56:51.048Z,97317.00
2022-09-14T02:59:26.189Z,97327.00
2022-09-14T03:02:03.834Z,97306.00
2022-09-14T03:04:38.590Z,97307.00
2022-09-14T03:07:14.856Z,97299.00
2022-09-14T03:09:50.674Z,97300.00
2022-09-14T03:12:26.233Z,97313.00
2022-09-14T03:15:20.114Z,97313.00
2022-09-14T03:17:55.064Z,97300.00
2022-09-14T03:20:45.354Z,97288.00
2022-09-14T03:23:24.171Z,97279.00
2022-09-14T03:26:11.141Z,97296.00
2022-09-14T03:28:53.322Z,97302.00
2022-09-14T03:31:32.503Z,97288.00
2022-09-14T03:34:08.009Z,97287.00
2022-09-14T03:36:44.260Z,97265.00
2022-09-14T03:39:20.933Z,97272.00
2022-09-14T03:42:03.030Z,97270.00
2022-09-14T03:44:39.295Z,97287.00
2022-09-14T03:47:26.584Z,97283.00
2022-09-14T03:50:01.780Z,97277.00
2022-09-14T03:52:37.544Z,97293.00
2022-09-14T03:55:15.829Z,97281.00
2022-09-14T03:57:57.404Z,97267.00
2022-09-14T04:00:44.552Z,97249.00
2022-09-14T04:03:33.335Z,97237.00
2022-09-14T04:06:16.967Z,97246.00
2022-09-14T04:08:52.271Z,97246.00
2022-09-14T04:11:35.252Z,97228.00
2022-09-14T04:14:20.934Z,97226.00
2022-09-14T04:16:56.117Z,97223.00
2022-09-14T04:19:31.252Z,97227.00
2022-09-14T04:22:07.216Z,97218.00
2022-09-14T04:24:41.622Z,97217.00
2022-09-14T04:27:25.057Z,97234.00
2022-09-14T04:30:02.537Z,97238.00
2022-09-14T04:35:27.108Z,97236.00
2022-09-14T04:38:01.834Z,97215.00
2022-09-14T04:40:36.949Z,97220.00
2022-09-14T04:43:34.648Z,97215.00
2022-09-14T04:46:23.417Z,97224.00
2022-09-14T04:48:58.072Z,97222.00
2022-09-14T04:51:35.598Z,97229.00
2022-09-14T04:54:14.857Z,97222.00
2022-09-14T04:56:52.679Z,97214.00
2022-09-14T04:59:30.256Z,97222.00
2022-09-14T05:02:09.044Z,97219.00
2022-09-14T05:05:05.811Z,97223.00
2022-09-14T05:10:57.207Z,97227.00
2022-09-14T05:13:33.571Z,97226.00
2022-09-14T05:19:35.937Z,97224.00
2022-09-14T05:22:54.359Z,97224.00
2022-09-14T05:26:49.233Z,97228.00
2022-09-14T05:38:55.653Z,97225.00
2022-09-14T05:41:50.780Z,97231.00
2022-09-14T05:44:30.932Z,97229.00
2022-09-14T05:47:10.067Z,97224.00
2022-09-14T05:50:31.894Z,97222.00
2022-09-14T05:53:20.051Z,97228.00
2022-09-14T05:56:09.532Z,97221.00
2022-09-14T06:07:07.698Z,97217.00
2022-09-14T06:10:24.660Z,97243.00
2022-09-14T06:18:04.846Z,97235.00
2022-09-14T06:20:54.258Z,97245.00
2022-09-14T06:23:41.256Z,97247.00
2022-09-14T06:27:10.727Z,97258.00
2022-09-14T06:30:04.428Z,97258.00
2022-09-14T06:32:41.517Z,97267.00
2022-09-14T06:39:55.281Z,97255.00
2022-09-14T06:42:32.105Z,97268.00
2022-09-14T06:48:09.765Z,97248.00
2022-09-14T06:50:45.550Z,97249.00
2022-09-14T06:53:20.074Z,97253.00
2022-09-14T06:56:00.689Z,97258.00
2022-09-14T06:58:52.716Z,97246.00
2022-09-14T07:01:33.926Z,97248.00
2022-09-14T07:04:10.741Z,97245.00
2022-09-14T07:06:47.536Z,97245.00
2022-09-14T07:09:56.790Z,97246.00
2022-09-14T07:12:36.972Z,97242.00
2022-09-14T07:15:33.945Z,97265.00
2022-09-14T07:18:08.811Z,97271.00
2022-09-14T07:20:43.456Z,97263.00
2022-09-14T07:23:40.396Z,97265.00
2022-09-14T07:31:07.808Z,97273.00
2022-09-14T07:37:57.386Z,97269.00
2022-09-14T07:41:02.948Z,97263.00
2022-09-14T07:43:41.817Z,97267.00
2022-09-14T07:47:08.195Z,97280.00
2022-09-14T07:53:28.963Z,97297.00
2022-09-14T08:00:19.407Z,97286.00
2022-09-14T08:03:42.303Z,97291.00
2022-09-14T08:06:35.188Z,97288.00
2022-09-14T08:13:40.411Z,97317.00
2022-09-14T08:16:30.410Z,97309.00
2022-09-14T08:19:11.260Z,97312.00
2022-09-14T08:21:57.281Z,97311.00
2022-09-14T08:25:03.309Z,97323.00
2022-09-14T08:28:32.659Z,97332.00
2022-09-14T08:31:46.595Z,97325.00
2022-09-14T08:38:38.097Z,97325.00
2022-09-14T08:41:57.081Z,97328.00
2022-09-14T08:44:59.946Z,97344.00
2022-09-14T08:47:46.267Z,97354.00
2022-09-14T08:50:29.778Z,97354.00
2022-09-14T08:53:05.912Z,97361.00
2022-09-14T08:55:51.036Z,97353.00
2022-09-14T08:59:18.648Z,97358.00
2022-09-14T09:02:29.398Z,97350.00
2022-09-14T09:05:57.487Z,97352.00
2022-09-14T09:08:43.805Z,97342.00
2022-09-14T09:11:48.657Z,97337.00
2022-09-14T09:14:37.523Z,97337.00
2022-09-14T09:18:24.079Z,97352.00
2022-09-14T09:22:13.018Z,97348.00
2022-09-14T09:24:55.404Z,97345.00
2022-09-14T09:27:35.067Z,97348.00
2022-09-14T09:30:21.536Z,97350.00
2022-09-14T09:32:56.683Z,97337.00
2022-09-14T09:35:44.706Z,97346.00
2022-09-14T09:38:31.546Z,97332.00
2022-09-14T09:41:21.015Z,97327.00
2022-09-14T09:48:37.640Z,97319.00
2022-09-14T09:51:34.114Z,97302.00
2022-09-14T09:54:59.265Z,97301.00
2022-09-14T09:57:57.561Z,97291.00
2022-09-14T10:00:33.554Z,97288.00
2022-09-14T10:03:40.426Z,97296.00
2022-09-14T10:06:22.283Z,97286.00
2022-09-14T10:09:00.422Z,97287.00
2022-09-14T10:12:01.363Z,97279.00
2022-09-14T10:14:41.554Z,97270.00
2022-09-14T10:17:19.080Z,97267.00
2022-09-14T10:19:58.869Z,97264.00
2022-09-14T10:22:41.983Z,97233.00
2022-09-14T10:25:25.946Z,97244.00
2022-09-14T10:28:23.716Z,97242.00
2022-09-14T10:31:24.660Z,97241.00
2022-09-14T10:34:27.385Z,97227.00
2022-09-14T10:38:03.803Z,97222.00
2022-09-14T10:40:55.533Z,97211.00
2022-09-14T10:43:44.258Z,97223.00
2022-09-14T10:46:26.598Z,97216.00
2022-09-14T10:49:27.998Z,97213.00
2022-09-14T10:52:15.160Z,97222.00
2022-09-14T10:55:06.527Z,97200.00
2022-09-14T10:57:51.462Z,97196.00
2022-09-14T11:00:31.257Z,97186.00
2022-09-14T11:03:29.724Z,97199.00
2022-09-14T11:06:39.686Z,97182.00
2022-09-14T11:09:42.849Z,97179.00
2022-09-14T11:12:26.306Z,97169.00
2022-09-14T11:15:15.808Z,97183.00
2022-09-14T11:18:10.426Z,97189.00
2022-09-14T11:21:06.230Z,97177.00
2022-09-14T11:24:02.206Z,97177.00
2022-09-14T11:26:42.472Z,97180.00
2022-09-14T11:29:53.567Z,97170.00
2022-09-14T11:32:36.934Z,97173.00
2022-09-14T11:35:19.653Z,97158.00
2022-09-14T11:38:24.592Z,97152.00
2022-09-14T11:41:17.586Z,97143.00
2022-09-14T11:44:18.432Z,97149.00
2022-09-14T11:47:18.181Z,97146.00
2022-09-14T11:50:21.404Z,97158.00
2022-09-14T11:53:05.347Z,97164.00
2022-09-14T11:55:54.252Z,97159.00
2022-09-14T11:58:33.743Z,97159.00
2022-09-14T12:01:37.089Z,97161.00
2022-09-14T12:04:19.482Z,97151.00
2022-09-14T12:06:59.007Z,97163.00
2022-09-14T12:09:55.244Z,97170.00
2022-09-14T12:12:40.865Z,97169.00
2022-09-14T12:15:34.633Z,97155.00
2022-09-14T12:18:26.159Z,97157.00
2022-09-14T12:21:11.283Z,97168.00
2022-09-14T12:23:58.603Z,97161.00
2022-09-14T12:26:35.207Z,97177.00
2022-09-14T12:29:34.495Z,97171.00
2022-09-14T12:32:29.738Z,97182.00
2022-09-14T12:35:47.493Z,97190.00
2022-09-14T12:39:23.363Z,97208.00
2022-09-14T12:42:29.634Z,97209.00
2022-09-14T12:45:49.520Z,97225.00
2022-09-14T12:49:03.708Z,97234.00
2022-09-14T12:51:46.839Z,97236.00
2022-09-14T12:54:57.078Z,97233.00
2022-09-14T12:57:44.781Z,97249.00
2022-09-14T13:00:23.191Z,97245.00
2022-09-14T13:03:30.003Z,97243.00
2022-09-14T13:06:06.363Z,97255.00
2022-09-14T13:08:51.978Z,97259.00
2022-09-14T13:11:36.402Z,97240.00
2022-09-14T13:14:18.329Z,97253.00
2022-09-14T13:16:53.533Z,97247.00
2022-09-14T13:19:34.931Z,97271.00
2022-09-14T13:22:21.971Z,97260.00
2022-09-14T13:24:57.631Z,97275.00
2022-09-14T13:27:39.250Z,97276.00
2022-09-14T13:30:23.948Z,97269.00
2022-09-14T13:33:17.737Z,97274.00
2022-09-14T13:36:00.620Z,97275.00
2022-09-14T13:38:51.798Z,97267.00
2022-09-14T13:41:30.748Z,97268.00
2022-09-14T13:44:10.435Z,97263.00
2022-09-14T13:46:45.611Z,97264.00
2022-09-14T13:49:21.020Z,97245.00
2022-09-14T13:52:49.646Z,97262.00
2022-09-14T13:55:28.773Z,97263.00
2022-09-14T13:58:25.342Z,97262.00
2022-09-14T14:01:04.693Z,97272.00
2022-09-14T14:03:51.398Z,97252.00
2022-09-14T14:06:30.141Z,97245.00
2022-09-14T14:10:08.284Z,97238.00
2022-09-14T14:12:50.106Z,97229.00
2022-09-14T14:15:45.104Z,97229.00
2022-09-14T14:19:03.714Z,97233.00
2022-09-14T14:21:38.999Z,97248.00
2022-09-14T14:24:28.675Z,97239.00
2022-09-14T14:27:29.866Z,97240.00
2022-09-14T14:30:15.937Z,97235.00
2022-09-14T14:32:51.926Z,97238.00
2022-09-14T14:35:30.446Z,97242.00
2022-09-14T14:38:05.784Z,97264.00
2022-09-14T14:40:41.752Z,97254.00
2022-09-14T14:43:30.437Z,97274.00
2022-09-14T14:46:08.918Z,97278.00
2022-09-14T14:48:45.205Z,97291.00
2022-09-14T14:51:25.764Z,97283.00
2022-09-14T14:54:01.532Z,97277.00
2022-09-14T14:56:36.691Z,97276.00
2022-09-14T14:59:26.081Z,97289.00
2022-09-14T15:02:01.445Z,97280.00
2022-09-14T15:04:36.676Z,97284.00
2022-09-14T15:07:13.561Z,97273.00
2022-09-14T15:09:49.002Z,97285.00
2022-09-14T15:13:02.610Z,97296.00
2022-09-14T15:15:52.640Z,97267.00
2022-09-14T15:18:39.612Z,97265.00
2022-09-14T15:21:16.039Z,97261.00
2022-09-14T15:23:52.151Z,97258.00
2022-09-14T15:26:27.175Z,97242.00
2022-09-14T15:29:04.256Z,97260.00
2022-09-14T15:31:39.959Z,97241.00
2022-09-14T15:34:28.180Z,97237.00
2022-09-14T15:37:03.084Z,97242.00
2022-09-14T15:39:48.087Z,97230.00
2022-09-14T15:42:51.302Z,97215.00
2022-09-14T15:45:25.914Z,97202.00
2022-09-14T15:48:14.095Z,97204.00
2022-09-14T15:50:50.056Z,97182.00
2022-09-14T15:53:24.718Z,97153.00
2022-09-14T15:56:20.335Z,97147.00
2022-09-14T15:58:56.110Z,97138.00
2022-09-14T16:01:33.713Z,97147.00
2022-09-14T16:04:12.025Z,97166.00
2022-09-14T16:06:48.302Z,97154.00
2022-09-14T16:09:26.573Z,97157.00
2022-09-14T16:12:22.510Z,97162.00
2022-09-14T16:14:57.551Z,97150.00
2022-09-14T16:17:35.429Z,97130.00
2022-09-14T16:20:22.055Z,97119.00
2022-09-14T16:22:56.883Z,97106.00
2022-09-14T16:25:34.614Z,97099.00
2022-09-14T16:28:15.158Z,97096.00
2022-09-14T16:30:52.995Z,97090.00
2022-09-14T16:33:38.909Z,97101.00
2022-09-14T16:36:26.214Z,97085.00
2022-09-14T16:39:07.766Z,97093.00
2022-09-14T16:41:47.249Z,97117.00
2022-09-14T16:44:32.119Z,97108.00
2022-09-14T16:47:11.037Z,97108.00
2022-09-14T16:49:53.285Z,97118.00
2022-09-14T16:52:32.172Z,97144.00
2022-09-14T16:55:43.548Z,97138.00
2022-09-14T16:59:04.717Z,97147.00
2022-09-14T17:01:55.023Z,97141.00
2022-09-14T17:04:47.947Z,97142.00
2022-09-14T17:07:24.177Z,97160.00
2022-09-14T17:10:16.396Z,97138.00
2022-09-14T17:12:52.630Z,97134.00
2022-09-14T17:15:27.625Z,97144.00
2022-09-14T17:18:07.661Z,97138.00
2022-09-14T17:20:43.961Z,97133.00
2022-09-14T17:23:42.157Z,97130.00
2022-09-14T17:26:34.203Z,97135.00
2022-09-14T17:29:21.460Z,97152.00
2022-09-14T17:31:57.066Z,97139.00
2022-09-14T17:34:43.217Z,97133.00
2022-09-14T17:37:23.843Z,97159.00
2022-09-14T17:39:59.645Z,97145.00
2022-09-14T17:42:40.572Z,97159.00
2022-09-14T17:45:59.410Z,97142.00
2022-09-14T17:48:37.558Z,97156.00
2022-09-14T17:51:37.240Z,97159.00
2022-09-14T17:54:16.333Z,97160.00
2022-09-14T17:56:51.467Z,97165.00
2022-09-14T17:59:39.624Z,97168.00
2022-09-14T18:02:14.712Z,97174.00
2022-09-14T18:04:51.945Z,97178.00
2022-09-14T18:07:28.926Z,97168.00
2022-09-14T18:10:12.123Z,97174.00
2022-09-14T18:12:50.934Z,97184.00
2022-09-14T18:15:26.599Z,97190.00
2022-09-14T18:18:07.114Z,97201.00
2022-09-14T18:21:01.285Z,97198.00
2022-09-14T18:23:48.668Z,97208.00
2022-09-14T18:26:25.662Z,97199.00
2022-09-14T18:29:00.975Z,97188.00
2022-09-14T18:31:38.970Z,97194.00
2022-09-14T18:34:15.929Z,97176.00
2022-09-14T18:36:54.856Z,97176.00
2022-09-14T18:40:20.001Z,97169.00
2022-09-14T18:42:58.785Z,97177.00
2022-09-14T18:46:38.737Z,97178.00
2022-09-14T18:49:33.330Z,97171.00
2022-09-14T18:52:09.862Z,97188.00
2022-09-14T18:55:14.785Z,97173.00
2022-09-14T18:57:50.316Z,97187.00
2022-09-14T19:00:29.306Z,97189.00
2022-09-14T19:06:20.815Z,97190.00
2022-09-14T19:08:56.591Z,97183.00
2022-09-14T19:11:35.304Z,97186.00
2022-09-14T19:14:17.678Z,97191.00
2022-09-14T19:17:04.414Z,97181.00
2022-09-14T19:19:47.172Z,97190.00
2022-09-14T19:22:45.334Z,97194.00
2022-09-14T19:25:22.798Z,97189.00
2022-09-14T19:27:58.124Z,97197.00
2022-09-14T19:30:33.488Z,97187.00
2022-09-14T19:33:21.808Z,97177.00
2022-09-14T19:36:03.409Z,97192.00
2022-09-14T19:38:46.887Z,97174.00
2022-09-14T19:41:40.293Z,97175.00
2022-09-14T19:44:16.009Z,97173.00
2022-09-14T19:46:52.991Z,97174.00
2022-09-14T19:49:28.399Z,97166.00
2022-09-14T19:52:04.800Z,97185.00
2022-09-14T19:54:57.694Z,97193.00
2022-09-14T19:57:35.524Z,97187.00
2022-09-14T20:00:21.732Z,97192.00
2022-09-14T20:03:04.281Z,97189.00
2022-09-14T20:05:45.754Z,97199.00
2022-09-14T20:08:22.026Z,97194.00
2022-09-14T20:11:06.268Z,97173.00
2022-09-14T20:13:43.876Z,97183.00
2022-09-14T20:16:27.457Z,97207.00
2022-09-14T20:19:13.805Z,97200.00
2022-09-14T20:22:21.710Z,97214.00
2022-09-14T20:24:59.537Z,97218.00
2022-09-14T20:27:43.155Z,97203.00
2022-09-14T20:30:24.086Z,97213.00
2022-09-14T20:33:16.527Z,97203.00
2022-09-14T20:36:25.670Z,97198.00
2022-09-14T20:39:24.516Z,97207.00
2022-09-14T20:42:05.008Z,97203.00
2022-09-14T20:44:41.357Z,97198.00
2022-09-14T20:47:16.618Z,97203.00
2022-09-14T20:49:52.564Z,97203.00
2022-09-14T20:52:29.182Z,97216.00
2022-09-14T20:55:04.373Z,97183.00
2022-09-14T20:57:57.078Z,97200.00
2022-09-14T21:00:34.934Z,97201.00
2022-09-14T21:03:21.199Z,97192.00
2022-09-14T21:05:56.096Z,97202.00
2022-09-14T21:09:04.089Z,97205.00
2022-09-14T21:11:46.720Z,97212.00
2022-09-14T21:14:21.797Z,97207.00
2022-09-14T21:16:58.698Z,97212.00
2022-09-14T21:19:39.771Z,97206.00
2022-09-14T21:22:21.660Z,97209.00
2022-09-14T21:24:56.599Z,97216.00
2022-09-14T21:27:32.003Z,97187.00
2022-09-14T21:30:28.049Z,97210.00
2022-09-14T21:33:17.943Z,97200.00
2022-09-14T21:35:52.433Z,97213.00
2022-09-14T21:38:28.342Z,97198.00
2022-09-14T21:41:03.530Z,97208.00
2022-09-14T21:43:39.169Z,97200.00
2022-09-14T21:46:15.445Z,97200.00
2022-09-14T21:49:07.182Z,97192.00
2022-09-14T21:51:41.778Z,97202.00
2022-09-14T21:54:23.166Z,97192.00
2022-09-14T21:56:58.303Z,97198.00
2022-09-14T21:59:45.319Z,97189.00
2022-09-14T22:02:21.802Z,97189.00
2022-09-14T22:04:58.665Z,97183.00
2022-09-14T22:07:45.226Z,97184.00
2022-09-14T22:10:36.068Z,97183.00
2022-09-14T22:13:22.437Z,97185.00
2022-09-14T22:15:57.497Z,97181.00
2022-09-14T22:18:33.212Z,97183.00
2022-09-14T22:22:04.276Z,97179.00
2022-09-14T22:24:42.161Z,97170.00
2022-09-14T22:27:16.996Z,97177.00
2022-09-14T22:30:00.300Z,97174.00
2022-09-14T22:32:39.458Z,97160.00
2022-09-14T22:35:13.802Z,97164.00
2022-09-14T22:37:58.091Z,97186.00
2022-09-14T22:40:44.525Z,97181.00
2022-09-14T22:43:39.808Z,97194.00
2022-09-14T22:46:16.854Z,97198.00
2022-09-14T22:48:58.210Z,97195.00
2022-09-14T22:51:34.410Z,97199.00
2022-09-14T22:54:21.829Z,97198.00
2022-09-14T22:56:58.158Z,97203.00
2022-09-14T22:59:32.657Z,97206.00
2022-09-14T23:02:29.484Z,97193.00
2022-09-14T23:05:05.473Z,97206.00
2022-09-14T23:08:14.961Z,97205.00
2022-09-14T23:10:50.128Z,97214.00
2022-09-14T23:13:42.728Z,97205.00
2022-09-14T23:16:29.888Z,97229.00
2022-09-14T23:19:07.188Z,97231.00
2022-09-14T23:21:42.383Z,97234.00
2022-09-14T23:24:23.460Z,97225.00
2022-09-14T23:27:15.634Z,97240.00
2022-09-14T23:30:08.847Z,97247.00
2022-09-14T23:32:45.245Z,97255.00
2022-09-14T23:35:21.475Z,97227.00
2022-09-14T23:37:56.340Z,97246.00
2022-09-14T23:40:31.235Z,97263.00
2022-09-14T23:43:05.801Z,97257.00
2022-09-14T23:45:53.566Z,97259.00
2022-09-14T23:48:57.471Z,97274.00
2022-09-14T23:51:39.894Z,97266.00
2022-09-14T23:54:29.553Z,97270.00
2022-09-14T23:57:04.845Z,97275.00
2022-09-14T23:59:51.390Z,97265.00
